Latest Coastal Weather Observations for Yanakie

IDV60701

Issued at 1:05 pm EDT Sunday 23 November 2014 (issued every 10 minutes, with the page automatically refreshed every 10 minutes)

About coastal observations | Map of coastal stations | Coastal observations for VIC | Marine services | Other Formats
Station Details ID: 085301 Name: YANAKIE Lat: -38.81 Lon: 146.19 Height: 13.3 m
Data from the previous 72 hours. | See also: Recent months at Yanakie
Date/Time
EDT
Temp

°C
Wind Pressure Rain
since 9am
mm
Weather Cloud Vis
km
Sea
Height
m
Swell
Dir
 
Speed
knots
Gust
knots
hPa Trend Height
m
Period
s
Dir
23/01:00pm 19.6 SSW 8 12 1012.2 - 0.0 - - - - - - -
23/12:30pm 19.9 SSW 9 14 1012.3 - 0.0 - - - - - - -
23/12:00pm 19.7 SSW 10 13 1012.4 - 0.0 - - - - - - -
23/11:30am 19.3 SSW 10 14 1012.5 - 0.0 - - - - - - -
23/11:00am 19.4 SSW 9 13 1012.8 - 0.0 - - - - - - -
23/10:30am 19.2 SSW 9 12 1012.8 - 0.0 - - - - - - -
23/10:00am 18.9 SW 7 11 1012.8 - 0.0 - - - - - - -
23/09:30am 18.8 WSW 9 11 1012.7 - 0.0 - - - - - - -
23/09:00am 18.2 WSW 6 9 1012.6 - 0.0 - - - - - - -
23/08:30am 17.5 WSW 7 9 1012.5 - 0.0 - - - - - - -
23/08:00am 16.4 W 8 11 1012.3 - 0.0 - - - - - - -
23/07:30am 15.9 W 8 11 1011.9 - 0.0 - - - - - - -
23/07:00am 15.2 W 7 9 1011.6 - 0.0 - - - - - - -
23/06:30am 14.6 W 5 7 1011.2 - 0.0 - - - - - - -
23/06:00am 14.7 WSW 8 11 1010.7 - 0.0 - - - - - - -
23/05:30am 15.5 WSW 8 11 1010.5 - 0.0 - - - - - - -
23/05:00am 15.6 WSW 9 12 1010.3 - 0.0 - - - - - - -
23/04:30am 15.6 W 11 14 1009.5 - 0.0 - - - - - - -
23/04:00am 15.6 W 12 16 1009.2 - 0.0 - - - - - - -
23/03:30am 15.4 W 11 15 1009.1 - 0.0 - - - - - - -
23/03:00am 15.6 W 13 18 1008.9 - 0.0 - - - - - - -
23/02:30am 15.2 W 13 18 1008.4 - 0.0 - - - - - - -
23/02:00am 15.5 W 12 15 1008.5 - 0.0 - - - - - - -
23/01:30am 15.8 W 11 16 1008.3 - 0.0 - - - - - - -
23/01:00am 15.8 WNW 9 12 1008.1 - 0.0 - - - - - - -
23/12:30am 16.0 WNW 7 8 1007.9 - 0.0 - - - - - - -
23/12:00am 16.5 W 10 11 1007.6 - 0.0 - - - - - - -
 
Date/Time
EDT
Temp

°C
Wind Pressure Rain
since 9am
mm
Weather Cloud Vis
km
Sea
Height
m
Swell
Dir
 
Speed
knots
Gust
knots
hPa Trend Height
m
Period
s
Dir
22/11:30pm 16.9 W 10 12 1007.6 - 0.0 - - - - - - -
22/11:00pm 17.1 W 8 10 1007.2 - 0.0 - - - - - - -
22/10:30pm 17.0 W 7 8 1006.8 - 0.0 - - - - - - -
22/10:00pm 18.3 W 5 9 1006.5 - 0.0 - - - - - - -
22/09:30pm 19.7 N 5 8 1005.9 - 0.0 - - - - - - -
22/09:00pm 22.0 NNE 5 7 1005.2 - 0.0 - - - - - - -
22/08:30pm 21.2 ENE 5 12 1005.9 - 0.0 - - - - - - -
22/08:00pm 22.4 ESE 6 10 1006.2 - 0.0 - - - - - - -
22/07:30pm 22.4 E 5 7 1005.4 - 0.0 - - - - - - -
22/07:00pm 23.8 E 6 9 1004.7 - 0.0 - - - - - - -
22/06:30pm 24.9 ENE 6 9 1005.5 - 0.0 - - - - - - -
22/06:00pm 25.0 E 5 9 1005.6 - 0.0 - - - - - - -
22/05:30pm 25.0 ENE 6 9 1005.6 - 0.0 - - - - - - -
22/05:00pm 27.9 N 7 9 1005.6 - 0.0 - - - - - - -
22/04:30pm 27.3 N 6 11 1005.8 - 0.0 - - - - - - -
22/04:00pm 26.5 NNW 10 14 1006.4 - 0.0 - - - - - - -
22/03:30pm 27.7 NNW 9 14 1006.7 - 0.0 - - - - - - -
22/03:00pm 27.6 NNW 11 15 1007.2 - 0.0 - - - - - - -
22/02:30pm 27.4 NNW 10 15 1007.5 - 0.0 - - - - - - -
22/02:00pm 26.9 N 10 16 1008.1 - 0.0 - - - - - - -
22/01:30pm 26.6 NNW 10 15 1008.4 - 0.0 - - - - - - -
22/01:00pm 25.9 NNW 9 13 1008.3 - 0.0 - - - - - - -
22/12:30pm 22.8 NNE 4 6 1008.7 - 0.0 - - - - - - -
22/12:00pm 20.6 NE 4 7 1009.1 - 0.0 - - - - - - -
22/11:30am 19.7 ENE 4 6 1009.4 - 0.0 - - - - - - -
22/11:00am 18.7 NE 6 8 1009.8 - 0.0 - - - - - - -
22/10:30am 19.4 ENE 7 10 1010.3 - 0.0 - - - - - - -
22/10:00am 18.9 ENE 8 12 1010.6 - 0.0 - - - - - - -
22/09:30am 18.5 ENE 7 10 1011.1 - 0.0 - - - - - - -
22/09:00am 17.4 ENE 7 10 1011.4 - 0.0 - - - - - - -
22/08:30am 16.0 E 7 11 1010.6 - 0.0 - - - - - - -
22/08:00am 16.0 ENE 8 10 1010.9 - 0.0 - - - - - - -
22/07:30am 15.8 ENE 6 9 1010.8 - 0.0 - - - - - - -
22/07:00am 14.4 ENE 6 9 1010.8 - 0.0 - - - - - - -
22/06:30am 13.4 ENE 5 8 1010.4 - 0.0 - - - - - - -
22/06:00am 12.9 NE 6 10 1010.1 - 0.0 - - - - - - -
22/05:30am 12.9 ENE 6 9 1010.3 - 0.0 - - - - - - -
22/05:00am 12.7 ENE 6 8 1010.3 - 0.0 - - - - - - -
22/04:30am 12.6 E 5 8 1010.4 - 0.0 - - - - - - -
22/04:00am 12.8 ENE 6 9 1010.3 - 0.0 - - - - - - -
22/03:30am 12.9 ENE 7 10 1010.3 - 0.0 - - - - - - -
22/03:00am 12.5 ENE 6 10 1010.5 - 0.0 - - - - - - -
22/02:30am 9.1 E 3 6 1011.3 - 0.0 - - - - - - -
22/02:00am 7.8 CALM 0 2 1011.4 - 0.0 - - - - - - -
22/01:30am 6.8 CALM 0 0 1012.0 - 0.0 - - - - - - -
22/01:00am 7.8 N 1 2 1012.5 - 0.0 - - - - - - -
22/12:30am 9.8 N 4 6 1012.8 - 0.0 - - - - - - -
22/12:00am 7.8 N 4 5 1013.0 - 0.0 - - - - - - -
 
Date/Time
EDT
Temp

°C
Wind Pressure Rain
since 9am
mm
Weather Cloud Vis
km
Sea
Height
m
Swell
Dir
 
Speed
knots
Gust
knots
hPa Trend Height
m
Period
s
Dir
21/11:30pm 6.9 N 1 7 1013.2 - 0.0 - - - - - - -
21/11:00pm 8.2 N 1 2 1013.3 - 0.0 - - - - - - -
21/10:30pm 9.2 N 2 4 1013.7 - 0.0 - - - - - - -
21/10:00pm 9.1 CALM 0 0 1013.8 - 0.0 - - - - - - -
21/09:30pm 10.1 SW 2 2 1013.6 - 0.0 - - - - - - -
21/09:00pm 10.0 SW 5 5 1013.2 - 0.0 - - - - - - -
21/08:30pm 11.2 SW 5 7 1013.0 - 0.0 - - - - - - -
21/08:00pm 13.1 SW 5 5 1012.7 - 0.0 - - - - - - -
21/07:30pm 15.2 SW 6 8 1012.3 - 0.0 - - - - - - -
21/07:00pm 15.8 SW 8 10 1012.0 - 0.0 - - - - - - -
21/06:30pm 16.4 SW 9 13 1011.7 - 0.0 - - - - - - -
21/06:00pm 16.6 SW 12 15 1011.4 - 0.0 - - - - - - -
21/05:30pm 17.5 SW 11 15 1011.3 - 0.0 - - - - - - -
21/05:00pm 17.9 SW 13 17 1011.2 - 0.0 - - - - - - -
21/04:30pm 17.9 SW 13 16 1011.1 - 0.0 - - - - - - -
21/04:00pm 18.6 WSW 13 17 1011.2 - 0.0 - - - - - - -
21/03:30pm 18.2 WSW 16 22 1011.2 - 0.0 - - - - - - -
21/03:00pm 17.9 WSW 17 23 1011.2 - 0.0 - - - - - - -
21/02:30pm 18.3 W 17 21 1011.1 - 0.0 - - - - - - -
21/02:00pm 17.7 W 15 20 1011.1 - 0.0 - - - - - - -
21/01:30pm 18.1 WSW 15 20 1011.0 - 0.0 - - - - - - -
21/01:00pm 17.6 WSW 15 21 1010.9 - 0.0 - - - - - - -
21/12:30pm 17.9 WSW 17 22 1010.9 - 0.0 - - - - - - -
21/12:00pm 17.6 W 16 23 1011.0 - 0.0 - - - - - - -
21/11:30am 17.1 W 16 21 1010.9 - 0.0 - - - - - - -
21/11:00am 17.5 WSW 15 20 1010.3 - 0.0 - - - - - - -
21/10:30am 16.7 WSW 16 21 1009.9 - 0.0 - - - - - - -
21/10:00am 16.5 WSW 18 24 1009.8 - 0.0 - - - - - - -
21/09:30am 15.9 WSW 18 24 1009.5 - 0.0 - - - - - - -
21/09:00am 15.3 WSW 19 26 1009.1 - 2.0 - - - - - - -
21/08:30am 15.3 W 19 25 1008.5 - 2.0 - - - - - - -
21/08:00am 15.3 W 13 19 1007.9 - 2.0 - - - - - - -
21/07:30am 15.1 W 10 17 1007.3 - 2.0 - - - - - - -
21/07:00am 15.1 W 10 15 1007.0 - 2.0 - - - - - - -
21/06:30am 15.1 W 13 18 1006.6 - 2.0 - - - - - - -
21/06:00am 15.0 W 15 19 1006.1 - 2.0 - - - - - - -
21/05:30am 14.9 W 13 17 1005.7 - 2.0 - - - - - - -
21/05:00am 15.2 W 15 22 1005.2 - 2.0 - - - - - - -
21/04:30am 15.0 W 13 18 1004.9 - 2.0 - - - - - - -
21/04:00am 15.4 W 13 16 1004.8 - 2.0 - - - - - - -
21/03:30am 15.8 W 12 17 1004.4 - 2.0 - - - - - - -
21/03:00am 16.1 W 14 19 1004.3 - 2.0 - - - - - - -
21/02:30am 18.0 W 15 22 1004.1 - 2.0 - - - - - - -
21/02:29am 18.1 W 15 22 1004.1 - 2.0 - - - - - - -
21/02:00am 18.4 NW 8 11 1003.6 - 2.0 - - - - - - -
21/01:30am 18.6 NW 10 13 1003.6 - 2.0 - - - - - - -
21/01:00am 18.6 NW 9 12 1003.8 - 2.0 - - - - - - -
21/12:30am 19.1 NNW 13 20 1004.0 - 2.0 - - - - - - -
21/12:00am 19.6 NNW 13 22 1004.4 - 2.0 - - - - - - -
 
Date/Time
EDT
Temp

°C
Wind Pressure Rain
since 9am
mm
Weather Cloud Vis
km
Sea
Height
m
Swell
Dir
 
Speed
knots
Gust
knots
hPa Trend Height
m
Period
s
Dir
20/11:30pm 19.3 NNW 12 17 1004.5 - 2.0 - - - - - - -
20/11:00pm 18.4 N 7 10 1004.8 - 2.0 - - - - - - -
20/10:30pm 18.1 N 7 13 1004.7 - 2.0 - - - - - - -
20/10:00pm 17.5 NNE 8 10 1005.2 - 2.0 - - - - - - -
20/09:30pm 17.0 NNE 7 10 1005.7 - 1.8 - - - - - - -
20/09:00pm 16.4 ENE 2 4 1006.3 - 1.2 Rain - - - - - -
20/08:30pm 16.4 CALM 0 0 1006.6 - 0.8 - - - - - - -
20/08:00pm 16.7 CALM 0 0 1006.8 - 0.6 - - - - - - -
20/07:30pm 16.8 WSW 4 5 1007.2 - 0.2 - - - - - - -
20/07:00pm 17.2 SW 7 8 1007.2 - 0.2 - - - - - - -
20/06:30pm 17.9 W 8 11 1007.1 - 0.0 - - - - - - -
20/06:00pm 18.7 W 9 13 1006.7 - 0.0 - - - - - - -
20/05:30pm 19.2 W 13 18 1006.7 - 0.0 - - - - - - -
20/05:00pm 21.3 W 15 19 1006.2 - 0.0 - - - - - - -
20/04:30pm 22.2 W 17 24 1005.8 - 0.0 - - - - - - -
20/04:27pm 22.3 W 16 24 1005.8 - 0.0 - - - - - - -
20/04:00pm 21.8 W 9 12 1005.8 - 0.0 - - - - - - -
20/03:30pm 21.5 SW 10 13 1005.4 - 0.0 - - - - - - -
20/03:00pm 22.2 SW 8 10 1005.1 - 0.0 - - - - - - -
20/02:30pm 23.7 SSW 8 11 1004.2 - 0.0 - - - - - - -
20/02:20pm 23.6 SSW 10 12 1004.2 - 0.0 - - - - - - -
20/02:00pm 28.6 NW 12 17 1003.7 - 0.0 - - - - - - -

Other Formats:

Comma delimited format used in spreadsheet applications
http://www.bom.gov.au/fwo/IDV60701/IDV60701.94911.axf

JavaScript Object Notation format (JSON) in row-major order
http://www.bom.gov.au/fwo/IDV60701/IDV60701.94911.json